Aeroporto :
LOGIN :

Iscrizione | Disclaimer

   EN    FR    IT 

 










Sommario :    VFR   VFR Marginale   IFR   IFR Intensivo   IFR Molto Intensivo
Visibilità : 
Base nubi : 
>= 8 km
>= 3000ft
5 / 8 km
1000 / 3000 ft
1500m / 5 km
500 / 1000 ft
800 / 1500m
200 / 500 ft
< 800m
< 200 ft
Simboli :   Temporali  Nebbia  Neve Forte  Precipitazioni Forti  Vento > 20 kt
SIGMETs :   Varie  Temporali  Ghiacco  Turbolenza  Onda orograficha  Ceneri Vulcaniche






- Altitudine del aeroporto : 776 ft
- Codice IATA : RMS


ETAR - Ramstein Air Base

ULTIMO METAR :
  • 172126Z 24011G16KT 9999 SCT025 OVC050 07/05 A3014 RMK AO2A SLP216 FZRANO $

METARs OBSOLETI :
  • 172056Z AUTO 23010G16KT 9999 OVC027 07/05 A3013 RMK AO2 OVC V BKN SLP212 P0080 63240 T00730046 52019 FZRANO
  • 172041Z AUTO 21008G16KT 9999 BKN027 07/05 A3012 RMK AO2 SLP209 FZRANO $
  • 171956Z AUTO 23009G16KT 9999 CLR 08/06 A3010 RMK AO2 SLP201 P1160 T00750055 FZRANO
  • 171856Z AUTO 23010G17KT 9999 FEW021 FEW055 08/06 A3008 RMK AO2 RAB04E12RAB15E25 SLP195 P2120 T00770058 FZRANO $
  • 171840Z AUTO 23013G20KT 9999 SCT021 BKN030 BKN055 08/06 A3008 RMK AO2 RAB04E12RAB15E25 SLP195 FZRANO $
  • 171825Z AUTO 25011G19KT 9999 BKN022 BKN029 08/06 A3008 RMK AO2 RAB04E12RAB15E25 CIG 022V030 BKN022 V FEW SLP195 FZRANO $

TAF TAF ETAR
Valido dal 17 a 18 ore il 19 a 00 ore UTC


171800Z 1718/1900 24010G20KT 9999 NSW SCT030 BKN050 510003 QNH3004INS
BECMG 1801/1802 25010G30KT 8000 -SHRA SCT010 BKN020 610405 510003 QNH3017INS
BECMG 1805/1806 24015G25KT 9999 NSW SCT020 BKN040 510003 QNH3025INS
BECMG 1815/1816 22009KT 9999 SCT030 QNH3019INS TX09/1814Z TN04/1803Z



MetMap, La meteo Aeronautica in un colpo d'occhio ! - Copyright ORBIFLY Dicembre 2007 - Disclaimer

ORBIFLY MET'MAP TEAM :

Programmazione e sviluppo : Alexandra Zaïnal
Concezione : Baudouin d'Aumeries
Aiuto per la programmazione : Marc-Olivier Méhu
Supporto tecnico e logistico : Manuel Goepfert
Aiuto per la traduzione : Arnaldo La Scala

Contatto : metmap@orbifly.com




FONTI E CREDITI :

   NOAA